createdAt,value
2018-12-06T00:00:51.823Z,1004.79
2018-12-06T00:01:44.813Z,1004.78
2018-12-06T00:02:37.765Z,1004.82
2018-12-06T00:03:29.554Z,1004.8
2018-12-06T00:04:22.116Z,1004.8
2018-12-06T00:05:14.651Z,1004.75
2018-12-06T00:06:07.227Z,1004.8
2018-12-06T00:06:59.601Z,1004.8
2018-12-06T00:07:52.231Z,1004.77
2018-12-06T00:08:44.626Z,1004.8
2018-12-06T00:09:36.991Z,1004.79
2018-12-06T00:10:29.402Z,1004.79
2018-12-06T00:11:21.705Z,1004.82
2018-12-06T00:12:14.689Z,1004.87
2018-12-06T00:13:06.530Z,1004.86
2018-12-06T00:13:58.998Z,1004.83
2018-12-06T00:14:51.851Z,1004.88
2018-12-06T00:15:44.239Z,1004.86
2018-12-06T00:16:36.691Z,1004.9
2018-12-06T00:17:29.902Z,1004.86
2018-12-06T00:18:22.455Z,1004.89
2018-12-06T00:19:14.956Z,1004.86
2018-12-06T00:20:07.041Z,1004.87
2018-12-06T00:20:58.666Z,1004.87
2018-12-06T00:21:52.044Z,1004.9
2018-12-06T00:22:44.347Z,1004.91
2018-12-06T00:23:36.423Z,1004.9
2018-12-06T00:24:22.507Z,1004.92
2018-12-06T00:25:03.055Z,1004.93
2018-12-06T00:25:43.633Z,1004.9
2018-12-06T00:26:24.002Z,1004.97
2018-12-06T00:27:04.805Z,1004.92
2018-12-06T00:27:45.120Z,1004.89
2018-12-06T00:28:25.936Z,1004.89
2018-12-06T00:29:07.140Z,1004.85
2018-12-06T00:29:48.247Z,1004.85
2018-12-06T00:30:28.667Z,1004.83
2018-12-06T00:31:09.762Z,1004.89
2018-12-06T00:31:50.397Z,1004.86
2018-12-06T00:32:30.620Z,1004.86
2018-12-06T00:33:11.128Z,1004.86
2018-12-06T00:33:51.622Z,1004.88
2018-12-06T00:34:32.187Z,1004.84
2018-12-06T00:35:12.735Z,1004.86
2018-12-06T00:35:53.492Z,1004.89
2018-12-06T00:36:33.727Z,1004.89
2018-12-06T00:37:14.194Z,1004.86
2018-12-06T00:37:54.735Z,1004.84
2018-12-06T00:38:35.468Z,1004.92
2018-12-06T00:39:15.964Z,1004.87
2018-12-06T00:39:57.681Z,1004.85
2018-12-06T00:40:38.109Z,1004.87
2018-12-06T00:41:18.570Z,1004.85
2018-12-06T00:41:59.327Z,1004.85
2018-12-06T00:42:39.967Z,1004.85
2018-12-06T00:43:20.262Z,1004.84
2018-12-06T00:44:00.820Z,1004.82
2018-12-06T00:44:41.242Z,1004.84
2018-12-06T00:45:21.768Z,1004.84
2018-12-06T00:46:02.371Z,1004.83
2018-12-06T00:46:42.973Z,1004.83
2018-12-06T00:47:23.898Z,1004.81
2018-12-06T00:48:05.011Z,1004.84
2018-12-06T00:48:45.249Z,1004.8
2018-12-06T00:49:26.012Z,1004.78
2018-12-06T00:50:06.334Z,1004.79
2018-12-06T00:50:46.813Z,1004.83
2018-12-06T00:51:27.535Z,1004.79
2018-12-06T00:52:07.971Z,1004.79
2018-12-06T00:52:49.098Z,1004.76
2018-12-06T00:53:30.162Z,1004.77
2018-12-06T00:54:13.055Z,1004.76
2018-12-06T00:54:54.689Z,1004.78
2018-12-06T00:55:35.548Z,1004.72
2018-12-06T00:56:18.622Z,1004.74
2018-12-06T00:56:59.738Z,1004.72
2018-12-06T00:57:40.807Z,1004.69
2018-12-06T00:58:21.719Z,1004.7
2018-12-06T00:59:03.093Z,1004.68
2018-12-06T00:59:44.976Z,1004.71
2018-12-06T01:00:25.799Z,1004.66
2018-12-06T01:01:07.230Z,1004.67
2018-12-06T01:01:47.485Z,1004.72
2018-12-06T01:02:29.805Z,1004.66
2018-12-06T01:03:10.884Z,1004.67
2018-12-06T01:03:52.149Z,1004.67
2018-12-06T01:04:35.102Z,1004.69
2018-12-06T01:06:29.526Z,1004.69
2018-12-06T01:07:09.933Z,1004.7
2018-12-06T01:07:50.297Z,1004.7
2018-12-06T01:08:30.691Z,1004.72
2018-12-06T01:09:11.160Z,1004.72
2018-12-06T01:09:52.284Z,1004.72
2018-12-06T01:10:32.686Z,1004.7
2018-12-06T01:11:13.071Z,1004.67
2018-12-06T01:11:53.469Z,1004.67
2018-12-06T01:12:33.841Z,1004.73
2018-12-06T01:13:14.205Z,1004.73
2018-12-06T01:13:54.631Z,1004.72
2018-12-06T01:14:35.043Z,1004.74
2018-12-06T01:15:15.375Z,1004.69
2018-12-06T01:18:24.817Z,1004.65
2018-12-06T01:19:17.788Z,1004.62
2018-12-06T01:20:10.007Z,1004.61
2018-12-06T01:21:06.341Z,1004.62
2018-12-06T01:21:57.927Z,1004.61
2018-12-06T01:22:50.064Z,1004.57
2018-12-06T01:23:42.522Z,1004.64
2018-12-06T01:24:35.292Z,1004.56
2018-12-06T01:25:27.697Z,1004.59
2018-12-06T01:26:21.663Z,1004.59
2018-12-06T01:27:14.098Z,1004.59
2018-12-06T01:28:07.057Z,1004.58
2018-12-06T01:28:59.967Z,1004.59
2018-12-06T01:29:53.557Z,1004.56
2018-12-06T01:30:48.371Z,1004.61
2018-12-06T01:31:40.430Z,1004.64
2018-12-06T01:32:32.936Z,1004.61
2018-12-06T01:33:28.632Z,1004.63
2018-12-06T01:34:23.041Z,1004.62
2018-12-06T01:35:17.068Z,1004.59
2018-12-06T01:36:11.073Z,1004.59
2018-12-06T01:37:04.616Z,1004.64
2018-12-06T01:37:58.062Z,1004.63
2018-12-06T01:38:50.494Z,1004.61
2018-12-06T01:39:47.484Z,1004.68
2018-12-06T01:40:40.342Z,1004.61
2018-12-06T01:41:33.020Z,1004.57
2018-12-06T01:42:25.655Z,1004.61
2018-12-06T01:43:17.842Z,1004.61
2018-12-06T01:44:13.046Z,1004.6
2018-12-06T01:45:06.387Z,1004.64
2018-12-06T01:45:59.543Z,1004.59
2018-12-06T01:46:51.813Z,1004.67
2018-12-06T01:47:44.554Z,1004.68
2018-12-06T01:48:37.036Z,1004.61
2018-12-06T01:49:29.839Z,1004.68
2018-12-06T01:50:23.011Z,1004.64
2018-12-06T01:51:16.116Z,1004.64
2018-12-06T01:52:08.594Z,1004.61
2018-12-06T01:53:01.280Z,1004.58
2018-12-06T01:53:54.022Z,1004.63
2018-12-06T01:54:46.743Z,1004.6
2018-12-06T01:55:40.382Z,1004.6
2018-12-06T01:56:36.688Z,1004.61
2018-12-06T01:57:31.696Z,1004.55
2018-12-06T01:58:24.947Z,1004.56
2018-12-06T01:59:18.870Z,1004.65
2018-12-06T02:00:12.856Z,1004.58
2018-12-06T02:01:05.761Z,1004.55
2018-12-06T02:01:58.078Z,1004.6
2018-12-06T02:02:52.103Z,1004.58
2018-12-06T02:03:44.547Z,1004.53
2018-12-06T02:04:36.938Z,1004.56
2018-12-06T02:05:29.634Z,1004.59
2018-12-06T02:06:23.439Z,1004.52
2018-12-06T02:07:17.202Z,1004.51
2018-12-06T02:08:11.239Z,1004.49
2018-12-06T02:09:06.089Z,1004.56
2018-12-06T02:09:59.456Z,1004.51
2018-12-06T02:10:53.001Z,1004.56
2018-12-06T02:11:45.495Z,1004.52
2018-12-06T02:12:37.823Z,1004.52
2018-12-06T02:13:29.573Z,1004.51
2018-12-06T02:14:21.411Z,1004.52
2018-12-06T02:15:14.582Z,1004.49
2018-12-06T02:16:07.622Z,1004.54
2018-12-06T02:17:00.957Z,1004.53
2018-12-06T02:17:53.178Z,1004.51
2018-12-06T02:18:45.559Z,1004.54
2018-12-06T02:19:37.786Z,1004.57
2018-12-06T02:20:31.623Z,1004.58
2018-12-06T02:21:25.117Z,1004.58
2018-12-06T02:22:18.604Z,1004.6
2018-12-06T02:23:10.972Z,1004.56
2018-12-06T02:24:04.026Z,1004.59
2018-12-06T02:24:55.987Z,1004.53
2018-12-06T02:25:48.218Z,1004.52
2018-12-06T02:26:41.524Z,1004.54
2018-12-06T02:27:36.832Z,1004.51
2018-12-06T02:28:30.156Z,1004.53
2018-12-06T02:29:23.565Z,1004.51
2018-12-06T02:30:17.030Z,1004.45
2018-12-06T02:31:09.741Z,1004.48
2018-12-06T02:32:03.295Z,1004.52
2018-12-06T02:32:52.713Z,1004.45
2018-12-06T02:33:33.613Z,1004.45
2018-12-06T02:34:15.821Z,1004.42
2018-12-06T02:35:01.378Z,1004.43
2018-12-06T02:36:00.432Z,1004.43
2018-12-06T02:38:31.370Z,1004.41
2018-12-06T02:39:11.778Z,1004.42
2018-12-06T02:39:52.248Z,1004.41
2018-12-06T02:40:32.615Z,1004.38
2018-12-06T02:41:13.044Z,1004.35
2018-12-06T02:41:53.418Z,1004.37
2018-12-06T02:42:33.848Z,1004.36
2018-12-06T02:44:28.739Z,1004.36
2018-12-06T02:45:09.520Z,1004.33
2018-12-06T02:45:49.919Z,1004.34
2018-12-06T02:46:30.264Z,1004.35
2018-12-06T02:47:10.665Z,1004.34
2018-12-06T02:47:51.096Z,1004.28
2018-12-06T02:48:31.458Z,1004.29
2018-12-06T02:49:12.013Z,1004.3
2018-12-06T02:49:52.227Z,1004.32
2018-12-06T02:50:32.614Z,1004.27
2018-12-06T02:51:12.994Z,1004.3
2018-12-06T02:51:53.376Z,1004.26
2018-12-06T02:52:33.810Z,1004.3
2018-12-06T02:53:14.212Z,1004.28
2018-12-06T02:58:48.125Z,1004.26
2018-12-06T03:02:25.751Z,1004.28
2018-12-06T03:03:18.105Z,1004.28
2018-12-06T03:04:10.960Z,1004.26
2018-12-06T03:05:03.258Z,1004.29
2018-12-06T03:05:56.991Z,1004.3
2018-12-06T03:06:49.694Z,1004.27
2018-12-06T03:07:42.280Z,1004.24
2018-12-06T03:08:34.854Z,1004.25
2018-12-06T03:09:27.344Z,1004.28
2018-12-06T03:10:21.540Z,1004.27
2018-12-06T03:11:13.954Z,1004.26
2018-12-06T03:12:06.401Z,1004.26
2018-12-06T03:12:58.986Z,1004.25
2018-12-06T03:13:51.271Z,1004.27
2018-12-06T03:14:43.974Z,1004.31
2018-12-06T03:15:36.758Z,1004.27
2018-12-06T03:16:29.693Z,1004.25
2018-12-06T03:17:22.886Z,1004.29
2018-12-06T03:18:16.712Z,1004.27
2018-12-06T03:19:10.861Z,1004.27
2018-12-06T03:20:03.147Z,1004.24
2018-12-06T03:20:55.522Z,1004.23
2018-12-06T03:21:49.319Z,1004.23
2018-12-06T03:22:42.057Z,1004.22
2018-12-06T03:23:34.229Z,1004.2
2018-12-06T03:24:26.485Z,1004.25
2018-12-06T03:25:19.056Z,1004.24
2018-12-06T03:26:11.496Z,1004.22
2018-12-06T03:27:04.287Z,1004.26
2018-12-06T03:27:56.768Z,1004.27
2018-12-06T03:28:49.434Z,1004.25
2018-12-06T03:29:42.301Z,1004.22
2018-12-06T03:30:34.892Z,1004.24
2018-12-06T03:31:28.966Z,1004.23
2018-12-06T03:32:21.379Z,1004.25
2018-12-06T03:33:14.395Z,1004.3
2018-12-06T03:34:06.764Z,1004.32
2018-12-06T03:34:59.298Z,1004.34
2018-12-06T03:35:51.886Z,1004.35
2018-12-06T03:36:44.735Z,1004.39
2018-12-06T03:37:37.330Z,1004.39
2018-12-06T03:38:29.796Z,1004.39
2018-12-06T03:39:22.443Z,1004.41
2018-12-06T03:40:14.804Z,1004.4
2018-12-06T03:41:07.513Z,1004.42
2018-12-06T03:41:59.732Z,1004.38
2018-12-06T03:42:52.229Z,1004.4
2018-12-06T03:43:45.360Z,1004.41
2018-12-06T03:44:37.776Z,1004.42
2018-12-06T03:45:30.862Z,1004.39
2018-12-06T03:46:23.459Z,1004.4
2018-12-06T03:47:15.867Z,1004.42
2018-12-06T03:48:08.633Z,1004.44
2018-12-06T03:49:00.852Z,1004.45
2018-12-06T03:49:53.352Z,1004.48
2018-12-06T03:50:45.562Z,1004.51
2018-12-06T03:51:37.797Z,1004.49
2018-12-06T03:52:30.201Z,1004.54
2018-12-06T03:53:22.218Z,1004.54
2018-12-06T03:54:14.659Z,1004.56
2018-12-06T03:55:06.848Z,1004.55
2018-12-06T03:55:58.561Z,1004.53
2018-12-06T03:56:51.337Z,1004.55
2018-12-06T03:57:43.585Z,1004.56
2018-12-06T03:58:35.904Z,1004.59
2018-12-06T03:59:28.601Z,1004.57
2018-12-06T04:00:21.292Z,1004.58
2018-12-06T04:01:13.753Z,1004.62
2018-12-06T04:02:06.810Z,1004.61
2018-12-06T04:02:58.741Z,1004.63
2018-12-06T04:03:51.234Z,1004.59
2018-12-06T04:04:43.861Z,1004.61
2018-12-06T04:05:36.234Z,1004.61
2018-12-06T04:06:28.237Z,1004.59
2018-12-06T04:07:20.736Z,1004.57
2018-12-06T04:08:13.283Z,1004.56
2018-12-06T04:09:05.699Z,1004.55
2018-12-06T04:10:01.515Z,1004.6
2018-12-06T04:10:53.401Z,1004.55
2018-12-06T04:11:45.896Z,1004.56
2018-12-06T04:12:38.081Z,1004.56
2018-12-06T04:13:31.138Z,1004.59
2018-12-06T04:14:24.329Z,1004.55
2018-12-06T04:15:17.307Z,1004.6
2018-12-06T04:16:09.262Z,1004.6
2018-12-06T04:17:02.554Z,1004.63
2018-12-06T04:17:55.014Z,1004.59
2018-12-06T04:18:48.249Z,1004.59
2018-12-06T04:19:40.318Z,1004.55
2018-12-06T04:20:33.255Z,1004.59
2018-12-06T04:21:28.086Z,1004.54
2018-12-06T04:22:19.513Z,1004.52
2018-12-06T04:23:12.626Z,1004.53
2018-12-06T04:24:04.711Z,1004.53
2018-12-06T04:24:56.688Z,1004.59
2018-12-06T04:25:49.647Z,1004.6
2018-12-06T04:26:42.944Z,1004.6
2018-12-06T04:27:35.196Z,1004.54
2018-12-06T04:28:28.148Z,1004.6
2018-12-06T05:06:10.642Z,1004.89
2018-12-06T05:06:50.760Z,1004.88
2018-12-06T05:07:31.204Z,1004.91
2018-12-06T05:08:11.535Z,1004.86
2018-12-06T05:08:51.926Z,1004.92
2018-12-06T05:09:32.331Z,1004.91
2018-12-06T05:10:12.699Z,1004.91
2018-12-06T05:10:53.290Z,1004.94
2018-12-06T05:11:33.676Z,1004.97
2018-12-06T05:12:14.055Z,1004.96
2018-12-06T05:12:54.509Z,1004.99
2018-12-06T05:13:34.834Z,1004.97
2018-12-06T05:14:15.216Z,1004.96
2018-12-06T05:14:55.645Z,1004.96
2018-12-06T05:15:35.984Z,1004.99
2018-12-06T05:16:16.373Z,1005
2018-12-06T05:16:57.071Z,1005.02
2018-12-06T05:17:37.499Z,1005.02
2018-12-06T05:18:17.969Z,1005.02
2018-12-06T05:18:58.576Z,1004.99
2018-12-06T05:19:39.052Z,1005.04
2018-12-06T05:20:19.480Z,1005.04
2018-12-06T05:20:59.935Z,1005.02
2018-12-06T05:21:40.350Z,1005.05
2018-12-06T05:22:20.765Z,1005.05
2018-12-06T05:23:01.131Z,1005.03
2018-12-06T05:23:41.564Z,1005.01
2018-12-06T05:24:21.987Z,1005.04
2018-12-06T05:25:02.373Z,1005.08
2018-12-06T05:25:42.783Z,1005.04
2018-12-06T05:26:23.207Z,1005.05
2018-12-06T05:28:40.333Z,1005.07
2018-12-06T05:29:21.271Z,1005.04
2018-12-06T05:30:01.716Z,1005.09
2018-12-06T05:30:42.099Z,1005.09
2018-12-06T05:31:22.478Z,1005.06
2018-12-06T05:32:02.929Z,1005.09
2018-12-06T05:32:43.287Z,1005.09
2018-12-06T05:33:23.734Z,1005.1
2018-12-06T05:34:04.089Z,1005.09
2018-12-06T05:34:44.495Z,1005.08
2018-12-06T05:35:24.920Z,1005.11
2018-12-06T05:36:05.290Z,1005.14
2018-12-06T05:36:45.732Z,1005.13
2018-12-06T05:37:26.176Z,1005.09
2018-12-06T05:38:06.580Z,1005.14
2018-12-06T05:38:46.967Z,1005.13
2018-12-06T05:39:27.361Z,1005.16
2018-12-06T05:41:27.021Z,1005.14
2018-12-06T05:42:07.404Z,1005.19
2018-12-06T05:42:47.789Z,1005.15
2018-12-06T05:43:28.204Z,1005.16
2018-12-06T05:44:08.556Z,1005.13
2018-12-06T05:44:48.940Z,1005.15
2018-12-06T05:45:29.448Z,1005.15
2018-12-06T05:46:09.927Z,1005.16
2018-12-06T05:46:50.367Z,1005.19
2018-12-06T05:47:30.790Z,1005.17
2018-12-06T05:48:11.232Z,1005.21
2018-12-06T05:48:52.176Z,1005.22
2018-12-06T05:49:32.137Z,1005.23
2018-12-06T05:50:12.609Z,1005.27
2018-12-06T05:50:52.975Z,1005.25
2018-12-06T05:51:33.338Z,1005.26
2018-12-06T05:52:13.911Z,1005.32
2018-12-06T05:52:54.296Z,1005.28
2018-12-06T05:53:34.671Z,1005.27
2018-12-06T05:54:15.070Z,1005.32
2018-12-06T05:54:55.475Z,1005.33
2018-12-06T05:55:35.908Z,1005.3
2018-12-06T05:56:16.346Z,1005.33
2018-12-06T05:56:56.708Z,1005.38
2018-12-06T05:59:34.160Z,1005.37
2018-12-06T06:00:27.478Z,1005.38
2018-12-06T06:01:19.505Z,1005.36
2018-12-06T06:02:12.085Z,1005.34
2018-12-06T06:03:04.692Z,1005.33
2018-12-06T06:03:56.739Z,1005.34
2018-12-06T06:04:48.962Z,1005.36
2018-12-06T06:05:41.083Z,1005.34
2018-12-06T06:06:34.127Z,1005.35
2018-12-06T06:07:26.053Z,1005.36
2018-12-06T06:08:18.614Z,1005.39
2018-12-06T06:09:14.098Z,1005.44
2018-12-06T06:10:07.210Z,1005.45
2018-12-06T06:10:59.534Z,1005.47
2018-12-06T06:11:53.396Z,1005.42
2018-12-06T06:12:45.675Z,1005.39
2018-12-06T06:13:38.199Z,1005.43
2018-12-06T06:14:30.447Z,1005.44
2018-12-06T06:15:22.433Z,1005.45
2018-12-06T06:16:14.746Z,1005.41
2018-12-06T06:17:07.184Z,1005.43
2018-12-06T06:17:59.158Z,1005.4
2018-12-06T06:18:51.482Z,1005.46
2018-12-06T06:19:53.770Z,1005.48
2018-12-06T06:20:54.524Z,1005.44
2018-12-06T06:21:46.554Z,1005.5
2018-12-06T06:24:20.042Z,1005.58
2018-12-06T06:25:12.519Z,1005.61
2018-12-06T06:26:04.816Z,1005.62
2018-12-06T06:27:00.256Z,1005.6
2018-12-06T06:27:52.293Z,1005.61
2018-12-06T06:28:44.872Z,1005.6
2018-12-06T06:29:38.108Z,1005.55
2018-12-06T06:33:15.451Z,1005.46
2018-12-06T06:34:10.456Z,1005.44
2018-12-06T06:35:02.555Z,1005.42
2018-12-06T06:35:55.848Z,1005.45
2018-12-06T06:36:47.976Z,1005.48
2018-12-06T06:37:40.128Z,1005.51
2018-12-06T06:38:32.302Z,1005.53
2018-12-06T06:39:24.991Z,1005.59
2018-12-06T06:42:02.786Z,1005.73
2018-12-06T06:42:56.511Z,1005.73
2018-12-06T06:43:48.608Z,1005.77
2018-12-06T06:44:42.242Z,1005.81
2018-12-06T06:45:34.535Z,1005.87
2018-12-06T06:46:27.993Z,1005.9
2018-12-06T06:47:23.702Z,1005.87
2018-12-06T06:48:27.443Z,1005.9
2018-12-06T06:49:32.936Z,1005.9
2018-12-06T06:50:34.304Z,1005.91
2018-12-06T06:53:39.806Z,1006.02
2018-12-06T06:54:41.264Z,1006.07
2018-12-06T06:55:50.674Z,1006.1
2018-12-06T06:56:52.274Z,1006.11
2018-12-06T06:58:04.550Z,1006.13
2018-12-06T06:59:06.014Z,1006.13
2018-12-06T07:00:06.388Z,1006.13
2018-12-06T07:01:03.903Z,1006.16
2018-12-06T07:02:04.459Z,1006.16
2018-12-06T07:03:17.459Z,1006.18
2018-12-06T07:04:28.425Z,1006.22
2018-12-06T07:05:41.435Z,1006.25
2018-12-06T07:07:12.286Z,1006.26
2018-12-06T07:11:43.350Z,1006.28
2018-12-06T07:12:23.955Z,1006.28
2018-12-06T07:13:04.473Z,1006.28
2018-12-06T07:13:45.257Z,1006.27
2018-12-06T07:14:25.865Z,1006.31
2018-12-06T07:15:06.967Z,1006.3
2018-12-06T07:15:47.529Z,1006.34
2018-12-06T07:16:28.543Z,1006.39
2018-12-06T07:17:09.478Z,1006.43
2018-12-06T07:17:49.586Z,1006.42
2018-12-06T07:18:30.097Z,1006.44
2018-12-06T07:19:10.514Z,1006.47
2018-12-06T07:19:50.959Z,1006.45
2018-12-06T07:20:31.716Z,1006.47
2018-12-06T07:21:12.100Z,1006.48
2018-12-06T07:21:52.604Z,1006.47
2018-12-06T07:22:33.253Z,1006.48
2018-12-06T07:23:13.538Z,1006.45
2018-12-06T07:23:53.968Z,1006.45
2018-12-06T07:24:34.608Z,1006.47
2018-12-06T07:27:07.001Z,1006.53
2018-12-06T07:27:48.017Z,1006.55
2018-12-06T07:28:27.773Z,1006.54
2018-12-06T07:29:08.557Z,1006.56
2018-12-06T07:29:49.089Z,1006.61
2018-12-06T07:30:29.615Z,1006.6
2018-12-06T07:31:10.027Z,1006.57
2018-12-06T07:31:50.858Z,1006.52
2018-12-06T07:32:31.109Z,1006.51
2018-12-06T07:33:11.651Z,1006.55
2018-12-06T07:33:52.082Z,1006.54
2018-12-06T07:34:32.665Z,1006.47
2018-12-06T07:35:13.125Z,1006.57
2018-12-06T07:35:53.664Z,1006.57
2018-12-06T07:36:34.191Z,1006.58
2018-12-06T07:37:15.003Z,1006.6
2018-12-06T07:37:55.244Z,1006.63
2018-12-06T07:38:35.686Z,1006.66
2018-12-06T07:39:18.004Z,1006.66
2018-12-06T07:39:58.687Z,1006.63
2018-12-06T07:40:39.944Z,1006.63
2018-12-06T07:41:20.182Z,1006.61
2018-12-06T07:42:00.605Z,1006.6
2018-12-06T07:47:57.501Z,1006.66
2018-12-06T07:48:39.493Z,1006.67
2018-12-06T07:49:18.816Z,1006.71
2018-12-06T07:50:00.444Z,1006.67
2018-12-06T07:50:41.480Z,1006.7
2018-12-06T07:52:59.367Z,1006.77
2018-12-06T07:53:40.026Z,1006.82
2018-12-06T07:54:20.400Z,1006.87
2018-12-06T07:55:00.883Z,1006.83
2018-12-06T07:55:41.512Z,1006.85
2018-12-06T07:56:22.094Z,1006.86
2018-12-06T07:57:02.391Z,1006.8
2018-12-06T07:57:43.003Z,1006.76
2018-12-06T07:58:23.412Z,1006.76
2018-12-06T07:59:04.824Z,1006.81
2018-12-06T07:59:44.969Z,1006.79
2018-12-06T08:00:25.393Z,1006.79
2018-12-06T08:01:05.821Z,1006.8
2018-12-06T08:01:46.299Z,1006.83
2018-12-06T08:02:26.915Z,1006.83
2018-12-06T08:03:07.320Z,1006.85
2018-12-06T08:03:47.813Z,1006.83
2018-12-06T08:05:44.930Z,1006.87
2018-12-06T08:07:49.319Z,1006.91
2018-12-06T08:08:29.707Z,1006.89
2018-12-06T08:09:10.482Z,1006.97
2018-12-06T08:09:50.887Z,1006.96
2018-12-06T08:10:31.523Z,1006.95
2018-12-06T08:11:11.971Z,1007.04
2018-12-06T08:11:52.361Z,1007.03
2018-12-06T08:12:32.880Z,1007.01
2018-12-06T08:13:13.349Z,1007.01
2018-12-06T08:13:53.752Z,1006.94
2018-12-06T08:14:34.178Z,1006.93
2018-12-06T08:15:14.699Z,1006.94
2018-12-06T08:15:55.269Z,1006.94
2018-12-06T08:16:35.665Z,1006.95
2018-12-06T08:17:16.148Z,1006.95
2018-12-06T08:17:56.495Z,1006.98
2018-12-06T08:18:36.933Z,1006.97
2018-12-06T08:19:17.361Z,1006.96
2018-12-06T08:19:57.816Z,1006.96
2018-12-06T08:22:28.285Z,1006.89
2018-12-06T08:24:24.858Z,1006.92
2018-12-06T08:25:05.221Z,1006.94
2018-12-06T08:25:45.844Z,1006.91
2018-12-06T08:26:26.348Z,1007.01
2018-12-06T08:27:06.957Z,1006.99
2018-12-06T08:27:47.582Z,1006.96
2018-12-06T08:28:28.050Z,1006.91
2018-12-06T08:29:09.106Z,1006.98
2018-12-06T08:29:49.414Z,1006.93
2018-12-06T08:30:29.812Z,1006.95
2018-12-06T08:31:10.628Z,1006.91
2018-12-06T08:31:51.963Z,1006.95
2018-12-06T08:32:32.333Z,1006.98
2018-12-06T08:33:12.337Z,1006.93
2018-12-06T08:33:53.011Z,1006.96
2018-12-06T08:34:33.487Z,1006.97
2018-12-06T08:42:08.160Z,1006.98
2018-12-06T08:44:21.219Z,1007.03
2018-12-06T08:45:19.906Z,1007.03
2018-12-06T08:46:17.307Z,1007.04
2018-12-06T08:47:13.377Z,1007.09
2018-12-06T08:48:11.866Z,1007.14
2018-12-06T08:51:16.626Z,1007.26
2018-12-06T08:52:15.886Z,1007.22
2018-12-06T08:53:18.617Z,1007.18
2018-12-06T08:56:14.962Z,1007.22
2018-12-06T08:56:59.640Z,1007.24
2018-12-06T08:57:41.478Z,1007.23
2018-12-06T08:58:22.444Z,1007.2
2018-12-06T08:59:02.896Z,1007.2
2018-12-06T08:59:45.070Z,1007.18
2018-12-06T09:00:25.882Z,1007.15
2018-12-06T09:01:08.544Z,1007.19
2018-12-06T09:01:47.092Z,1007.14
2018-12-06T09:02:27.559Z,1007.18
2018-12-06T09:03:08.164Z,1007.12
2018-12-06T09:03:48.729Z,1007.18
2018-12-06T09:04:29.250Z,1007.14
2018-12-06T09:05:09.746Z,1007.12
2018-12-06T09:05:50.325Z,1007.12
2018-12-06T09:06:31.999Z,1007.18
2018-12-06T09:07:11.555Z,1007.14
2018-12-06T09:07:52.089Z,1007.12
2018-12-06T09:08:32.570Z,1007.11
2018-12-06T09:09:13.066Z,1007.12
2018-12-06T09:09:53.828Z,1007.09
2018-12-06T09:10:34.530Z,1007.11
2018-12-06T09:11:15.102Z,1007.13
2018-12-06T09:11:55.532Z,1007.09
2018-12-06T09:12:36.239Z,1007.11
2018-12-06T09:13:16.676Z,1007.14
2018-12-06T09:13:57.348Z,1007.08
2018-12-06T09:14:38.517Z,1007.02
2018-12-06T09:15:18.616Z,1007.05
2018-12-06T09:15:59.103Z,1007.01
2018-12-06T09:16:39.524Z,1006.94
2018-12-06T09:17:20.052Z,1006.96
2018-12-06T09:18:02.287Z,1006.92
2018-12-06T09:18:42.775Z,1006.99
2018-12-06T09:19:23.436Z,1007.02
2018-12-06T09:20:04.306Z,1007
2018-12-06T09:20:45.190Z,1007.02
2018-12-06T09:21:25.909Z,1006.98
2018-12-06T09:22:06.646Z,1006.96
2018-12-06T09:22:47.369Z,1006.92
2018-12-06T09:23:27.909Z,1006.93
2018-12-06T09:24:08.378Z,1006.94
2018-12-06T09:24:49.432Z,1006.96
2018-12-06T09:25:30.038Z,1006.84
2018-12-06T09:26:10.675Z,1006.94
2018-12-06T09:26:58.453Z,1006.9
2018-12-06T09:27:31.897Z,1006.9
2018-12-06T09:32:47.720Z,1006.94
2018-12-06T09:33:33.486Z,1006.98
2018-12-06T09:34:14.453Z,1006.99
2018-12-06T09:34:57.551Z,1006.98
2018-12-06T09:35:37.527Z,1006.96
2018-12-06T09:38:01.643Z,1007.01
2018-12-06T09:38:56.937Z,1007.02
2018-12-06T09:39:54.949Z,1007.08
2018-12-06T09:40:48.377Z,1007.17
2018-12-06T09:43:26.761Z,1007.22
2018-12-06T09:44:30.937Z,1007.26
2018-12-06T09:45:30.580Z,1007.31
2018-12-06T09:46:47.561Z,1007.42
2018-12-06T09:48:45.565Z,1007.39
2018-12-06T09:49:39.958Z,1007.36
2018-12-06T09:50:30.278Z,1007.37
2018-12-06T09:53:15.016Z,1007.49
2018-12-06T09:54:09.935Z,1007.47
2018-12-06T09:54:49.924Z,1007.51
2018-12-06T09:55:30.381Z,1007.55
2018-12-06T09:56:10.783Z,1007.53
2018-12-06T09:56:51.257Z,1007.57
2018-12-06T09:57:40.054Z,1007.57
2018-12-06T09:58:19.035Z,1007.59
2018-12-06T09:59:00.468Z,1007.57
2018-12-06T09:59:46.854Z,1007.57
2018-12-06T10:00:26.408Z,1007.55
2018-12-06T10:01:09.200Z,1007.59
2018-12-06T10:01:53.513Z,1007.57
2018-12-06T10:02:35.412Z,1007.61
2018-12-06T10:03:17.644Z,1007.61
2018-12-06T10:04:06.949Z,1007.64
2018-12-06T10:04:48.076Z,1007.6
2018-12-06T10:05:30.068Z,1007.61
2018-12-06T10:06:12.462Z,1007.6
2018-12-06T10:06:55.432Z,1007.59
2018-12-06T10:07:37.379Z,1007.63
2018-12-06T10:08:19.233Z,1007.62
2018-12-06T10:09:06.872Z,1007.6
2018-12-06T10:09:55.633Z,1007.56
2018-12-06T10:10:36.221Z,1007.55
2018-12-06T10:11:17.065Z,1007.64
2018-12-06T10:11:58.715Z,1007.61
2018-12-06T10:12:42.659Z,1007.6
2018-12-06T10:13:23.274Z,1007.68
2018-12-06T10:14:03.825Z,1007.67
2018-12-06T10:14:44.752Z,1007.7
2018-12-06T10:15:26.887Z,1007.68
2018-12-06T10:16:10.227Z,1007.68
2018-12-06T10:16:57.993Z,1007.74
2018-12-06T10:17:42.443Z,1007.68
2018-12-06T10:18:22.611Z,1007.62
2018-12-06T10:19:03.783Z,1007.67
2018-12-06T10:19:44.389Z,1007.67
2018-12-06T10:20:25.423Z,1007.72
2018-12-06T10:21:05.889Z,1007.65
2018-12-06T10:21:51.932Z,1007.61
2018-12-06T10:22:33.202Z,1007.62
2018-12-06T10:23:14.541Z,1007.67
2018-12-06T10:23:55.875Z,1007.52
2018-12-06T10:24:39.610Z,1007.62
2018-12-06T10:25:20.401Z,1007.68
2018-12-06T10:26:04.954Z,1007.66
2018-12-06T10:28:41.637Z,1007.64
2018-12-06T10:29:20.232Z,1007.66
2018-12-06T11:07:15.016Z,1007.63
2018-12-06T11:07:55.458Z,1007.59
2018-12-06T11:08:35.893Z,1007.65
2018-12-06T11:09:16.340Z,1007.6
2018-12-06T11:10:03.053Z,1007.62
2018-12-06T11:10:43.491Z,1007.61
2018-12-06T11:11:23.953Z,1007.61
2018-12-06T11:12:04.334Z,1007.63
2018-12-06T11:12:44.765Z,1007.58
2018-12-06T11:13:25.183Z,1007.6
2018-12-06T11:14:05.704Z,1007.63
2018-12-06T11:14:48.173Z,1007.63
2018-12-06T11:15:30.563Z,1007.68
2018-12-06T11:16:14.549Z,1007.7
2018-12-06T11:16:56.177Z,1007.63
2018-12-06T11:21:14.590Z,1007.62
2018-12-06T11:22:15.831Z,1007.62
2018-12-06T11:23:19.864Z,1007.58
2018-12-06T11:26:15.865Z,1007.69
2018-12-06T11:27:48.733Z,1007.73
2018-12-06T11:29:12.008Z,1007.71
2018-12-06T11:30:27.729Z,1007.74
2018-12-06T11:31:16.817Z,1007.7
2018-12-06T11:31:57.841Z,1007.68
2018-12-06T11:32:38.878Z,1007.68
2018-12-06T11:33:20.934Z,1007.71
2018-12-06T11:34:02.648Z,1007.75
2018-12-06T11:34:51.084Z,1007.75
2018-12-06T11:35:35.875Z,1007.79
2018-12-06T11:36:18.238Z,1007.78
2018-12-06T11:36:59.683Z,1007.82
2018-12-06T11:37:42.047Z,1007.86
2018-12-06T11:38:28.410Z,1007.83
2018-12-06T11:39:12.358Z,1007.82
2018-12-06T11:42:47.619Z,1007.86
2018-12-06T11:45:09.871Z,1007.86
2018-12-06T11:45:51.174Z,1007.86
2018-12-06T11:46:33.727Z,1007.89
2018-12-06T11:47:14.618Z,1007.94
2018-12-06T11:47:56.211Z,1007.89
2018-12-06T11:48:36.446Z,1007.91
2018-12-06T11:49:18.820Z,1007.91
2018-12-06T11:50:00.167Z,1007.91
2018-12-06T11:50:41.367Z,1007.84
2018-12-06T11:51:22.254Z,1007.86
2018-12-06T11:52:04.705Z,1007.9
2018-12-06T11:52:44.858Z,1007.86
2018-12-06T11:53:25.475Z,1007.82
2018-12-06T11:54:09.832Z,1007.82
2018-12-06T11:54:50.298Z,1007.82
2018-12-06T11:55:32.696Z,1007.8
2018-12-06T11:56:13.661Z,1007.78
2018-12-06T11:56:55.715Z,1007.81
2018-12-06T11:57:37.259Z,1007.78
2018-12-06T11:58:19.530Z,1007.78
2018-12-06T11:59:08.208Z,1007.82
2018-12-06T11:59:50.651Z,1007.87
2018-12-06T12:00:31.158Z,1007.82